sensor_id;sensor_type;location;lat;lon;timestamp;P1;durP1;ratioP1;P2;durP2;ratioP2
17424;SDS011;8830;50.978;5.058;2023-05-07T00:00:02;6.47;;;5.93;;
17424;SDS011;8830;50.978;5.058;2023-05-07T00:02:32;6.27;;;5.70;;
17424;SDS011;8830;50.978;5.058;2023-05-07T00:05:00;6.00;;;5.50;;
17424;SDS011;8830;50.978;5.058;2023-05-07T00:07:28;6.13;;;5.40;;
17424;SDS011;8830;50.978;5.058;2023-05-07T00:09:55;5.97;;;5.40;;
17424;SDS011;8830;50.978;5.058;2023-05-07T00:12:23;5.90;;;5.40;;
17424;SDS011;8830;50.978;5.058;2023-05-07T00:14:50;6.00;;;5.03;;
17424;SDS011;8830;50.978;5.058;2023-05-07T00:17:17;5.70;;;5.30;;
17424;SDS011;8830;50.978;5.058;2023-05-07T00:19:45;5.80;;;5.30;;
17424;SDS011;8830;50.978;5.058;2023-05-07T00:22:12;6.20;;;5.80;;
17424;SDS011;8830;50.978;5.058;2023-05-07T00:24:40;6.20;;;5.80;;
17424;SDS011;8830;50.978;5.058;2023-05-07T00:27:07;5.50;;;5.10;;
17424;SDS011;8830;50.978;5.058;2023-05-07T00:29:34;5.50;;;5.10;;
17424;SDS011;8830;50.978;5.058;2023-05-07T00:32:02;5.23;;;4.83;;
17424;SDS011;8830;50.978;5.058;2023-05-07T00:34:29;4.23;;;4.03;;
17424;SDS011;8830;50.978;5.058;2023-05-07T00:36:57;4.50;;;4.20;;
17424;SDS011;8830;50.978;5.058;2023-05-07T00:39:24;4.90;;;4.60;;
17424;SDS011;8830;50.978;5.058;2023-05-07T00:41:52;4.40;;;4.10;;
17424;SDS011;8830;50.978;5.058;2023-05-07T00:44:19;4.00;;;3.70;;
17424;SDS011;8830;50.978;5.058;2023-05-07T00:46:47;4.97;;;4.60;;
17424;SDS011;8830;50.978;5.058;2023-05-07T00:49:15;4.60;;;4.20;;
17424;SDS011;8830;50.978;5.058;2023-05-07T00:51:42;5.20;;;4.87;;
17424;SDS011;8830;50.978;5.058;2023-05-07T00:54:10;5.77;;;5.37;;
17424;SDS011;8830;50.978;5.058;2023-05-07T00:56:37;6.10;;;5.60;;
17424;SDS011;8830;50.978;5.058;2023-05-07T00:59:06;6.57;;;6.07;;
17424;SDS011;8830;50.978;5.058;2023-05-07T01:01:34;9.83;;;6.90;;
17424;SDS011;8830;50.978;5.058;2023-05-07T01:04:02;7.43;;;6.50;;
17424;SDS011;8830;50.978;5.058;2023-05-07T01:06:29;6.77;;;6.17;;
17424;SDS011;8830;50.978;5.058;2023-05-07T01:08:58;6.40;;;5.93;;
17424;SDS011;8830;50.978;5.058;2023-05-07T01:11:27;7.00;;;6.50;;
17424;SDS011;8830;50.978;5.058;2023-05-07T01:13:55;7.23;;;6.63;;
17424;SDS011;8830;50.978;5.058;2023-05-07T01:16:26;7.53;;;6.70;;
17424;SDS011;8830;50.978;5.058;2023-05-07T01:18:53;6.80;;;6.20;;
17424;SDS011;8830;50.978;5.058;2023-05-07T01:21:21;6.97;;;6.37;;
17424;SDS011;8830;50.978;5.058;2023-05-07T01:23:53;7.33;;;6.67;;
17424;SDS011;8830;50.978;5.058;2023-05-07T01:26:21;6.73;;;6.20;;
17424;SDS011;8830;50.978;5.058;2023-05-07T01:28:48;6.80;;;6.23;;
17424;SDS011;8830;50.978;5.058;2023-05-07T01:31:16;6.57;;;6.07;;
17424;SDS011;8830;50.978;5.058;2023-05-07T01:33:44;6.90;;;6.40;;
17424;SDS011;8830;50.978;5.058;2023-05-07T01:36:12;7.30;;;6.70;;
17424;SDS011;8830;50.978;5.058;2023-05-07T01:38:40;6.40;;;5.87;;
17424;SDS011;8830;50.978;5.058;2023-05-07T01:41:10;7.77;;;6.60;;
17424;SDS011;8830;50.978;5.058;2023-05-07T01:43:39;6.80;;;6.07;;
17424;SDS011;8830;50.978;5.058;2023-05-07T01:46:06;6.37;;;5.87;;
17424;SDS011;8830;50.978;5.058;2023-05-07T01:48:35;8.07;;;6.20;;
17424;SDS011;8830;50.978;5.058;2023-05-07T01:51:03;6.77;;;6.10;;
17424;SDS011;8830;50.978;5.058;2023-05-07T01:53:35;7.13;;;6.40;;
17424;SDS011;8830;50.978;5.058;2023-05-07T01:56:02;6.40;;;5.90;;
17424;SDS011;8830;50.978;5.058;2023-05-07T01:58:31;7.73;;;6.17;;
17424;SDS011;8830;50.978;5.058;2023-05-07T02:00:59;7.10;;;6.60;;
17424;SDS011;8830;50.978;5.058;2023-05-07T02:03:26;7.23;;;6.27;;
17424;SDS011;8830;50.978;5.058;2023-05-07T02:05:53;7.47;;;6.27;;
17424;SDS011;8830;50.978;5.058;2023-05-07T02:08:20;6.67;;;6.17;;
17424;SDS011;8830;50.978;5.058;2023-05-07T02:10:47;6.53;;;5.87;;
17424;SDS011;8830;50.978;5.058;2023-05-07T02:13:16;6.87;;;6.37;;
17424;SDS011;8830;50.978;5.058;2023-05-07T02:15:46;6.47;;;6.07;;
17424;SDS011;8830;50.978;5.058;2023-05-07T02:18:16;6.73;;;6.23;;
17424;SDS011;8830;50.978;5.058;2023-05-07T02:20:43;7.50;;;6.77;;
17424;SDS011;8830;50.978;5.058;2023-05-07T02:23:10;6.63;;;6.00;;
17424;SDS011;8830;50.978;5.058;2023-05-07T02:25:37;6.93;;;6.43;;
17424;SDS011;8830;50.978;5.058;2023-05-07T02:28:04;6.67;;;6.07;;
17424;SDS011;8830;50.978;5.058;2023-05-07T02:30:32;8.30;;;6.03;;
17424;SDS011;8830;50.978;5.058;2023-05-07T02:33:00;7.37;;;6.77;;
17424;SDS011;8830;50.978;5.058;2023-05-07T02:35:27;6.37;;;5.87;;
17424;SDS011;8830;50.978;5.058;2023-05-07T02:37:54;7.07;;;6.47;;
17424;SDS011;8830;50.978;5.058;2023-05-07T02:40:22;6.90;;;6.30;;
17424;SDS011;8830;50.978;5.058;2023-05-07T02:42:49;7.40;;;6.67;;
17424;SDS011;8830;50.978;5.058;2023-05-07T02:45:16;7.07;;;6.50;;
17424;SDS011;8830;50.978;5.058;2023-05-07T02:47:44;7.13;;;6.53;;
17424;SDS011;8830;50.978;5.058;2023-05-07T02:50:13;7.80;;;7.20;;
17424;SDS011;8830;50.978;5.058;2023-05-07T02:52:40;6.43;;;6.03;;
17424;SDS011;8830;50.978;5.058;2023-05-07T02:55:07;7.23;;;6.63;;
17424;SDS011;8830;50.978;5.058;2023-05-07T02:57:35;7.03;;;6.40;;
17424;SDS011;8830;50.978;5.058;2023-05-07T03:00:09;7.87;;;6.57;;
17424;SDS011;8830;50.978;5.058;2023-05-07T03:02:37;7.07;;;6.47;;
17424;SDS011;8830;50.978;5.058;2023-05-07T03:05:06;7.03;;;6.50;;
17424;SDS011;8830;50.978;5.058;2023-05-07T03:07:34;7.40;;;6.73;;
17424;SDS011;8830;50.978;5.058;2023-05-07T03:10:01;6.87;;;6.37;;
17424;SDS011;8830;50.978;5.058;2023-05-07T03:12:28;7.50;;;6.87;;
17424;SDS011;8830;50.978;5.058;2023-05-07T03:14:56;7.10;;;6.40;;
17424;SDS011;8830;50.978;5.058;2023-05-07T03:17:24;7.67;;;6.70;;
17424;SDS011;8830;50.978;5.058;2023-05-07T03:19:51;7.50;;;6.90;;
17424;SDS011;8830;50.978;5.058;2023-05-07T03:22:18;7.20;;;6.70;;
17424;SDS011;8830;50.978;5.058;2023-05-07T03:24:47;7.43;;;6.80;;
17424;SDS011;8830;50.978;5.058;2023-05-07T03:27:14;16.70;;;7.63;;
17424;SDS011;8830;50.978;5.058;2023-05-07T03:29:41;7.27;;;6.73;;
17424;SDS011;8830;50.978;5.058;2023-05-07T03:32:09;7.27;;;6.50;;
17424;SDS011;8830;50.978;5.058;2023-05-07T03:34:36;7.37;;;6.77;;
17424;SDS011;8830;50.978;5.058;2023-05-07T03:37:04;6.37;;;5.97;;
17424;SDS011;8830;50.978;5.058;2023-05-07T03:39:32;6.80;;;6.30;;
17424;SDS011;8830;50.978;5.058;2023-05-07T03:42:00;7.13;;;6.53;;
17424;SDS011;8830;50.978;5.058;2023-05-07T03:44:27;7.10;;;6.60;;
17424;SDS011;8830;50.978;5.058;2023-05-07T03:46:55;6.30;;;5.70;;
17424;SDS011;8830;50.978;5.058;2023-05-07T03:49:22;6.57;;;6.07;;
17424;SDS011;8830;50.978;5.058;2023-05-07T03:51:49;7.93;;;6.03;;
17424;SDS011;8830;50.978;5.058;2023-05-07T03:54:17;6.73;;;6.13;;
17424;SDS011;8830;50.978;5.058;2023-05-07T03:56:44;6.63;;;6.17;;
17424;SDS011;8830;50.978;5.058;2023-05-07T03:59:13;6.83;;;6.40;;
17424;SDS011;8830;50.978;5.058;2023-05-07T04:01:40;7.50;;;6.90;;
17424;SDS011;8830;50.978;5.058;2023-05-07T04:04:07;7.43;;;6.83;;
17424;SDS011;8830;50.978;5.058;2023-05-07T04:06:34;7.73;;;7.07;;
17424;SDS011;8830;50.978;5.058;2023-05-07T04:09:02;7.77;;;7.00;;
17424;SDS011;8830;50.978;5.058;2023-05-07T04:11:29;8.37;;;7.67;;
17424;SDS011;8830;50.978;5.058;2023-05-07T04:13:56;10.13;;;7.53;;
17424;SDS011;8830;50.978;5.058;2023-05-07T04:16:25;8.27;;;7.53;;
17424;SDS011;8830;50.978;5.058;2023-05-07T04:18:52;8.27;;;7.47;;
17424;SDS011;8830;50.978;5.058;2023-05-07T04:21:20;7.40;;;6.90;;
17424;SDS011;8830;50.978;5.058;2023-05-07T04:23:47;7.80;;;7.10;;
17424;SDS011;8830;50.978;5.058;2023-05-07T04:26:16;7.63;;;6.83;;
17424;SDS011;8830;50.978;5.058;2023-05-07T04:28:43;7.13;;;6.60;;
17424;SDS011;8830;50.978;5.058;2023-05-07T04:31:10;6.77;;;6.27;;
17424;SDS011;8830;50.978;5.058;2023-05-07T04:33:42;7.53;;;6.97;;
17424;SDS011;8830;50.978;5.058;2023-05-07T04:36:10;7.63;;;7.03;;
17424;SDS011;8830;50.978;5.058;2023-05-07T04:38:38;6.47;;;5.97;;
17424;SDS011;8830;50.978;5.058;2023-05-07T04:41:06;6.63;;;6.13;;
17424;SDS011;8830;50.978;5.058;2023-05-07T04:43:35;7.17;;;6.37;;
17424;SDS011;8830;50.978;5.058;2023-05-07T04:46:02;6.73;;;6.13;;
17424;SDS011;8830;50.978;5.058;2023-05-07T04:48:30;8.00;;;7.20;;
17424;SDS011;8830;50.978;5.058;2023-05-07T04:50:58;6.70;;;6.07;;
17424;SDS011;8830;50.978;5.058;2023-05-07T04:53:25;7.00;;;6.30;;
17424;SDS011;8830;50.978;5.058;2023-05-07T04:55:54;7.73;;;6.77;;
17424;SDS011;8830;50.978;5.058;2023-05-07T04:58:23;7.03;;;6.30;;
17424;SDS011;8830;50.978;5.058;2023-05-07T05:00:50;7.73;;;7.13;;
17424;SDS011;8830;50.978;5.058;2023-05-07T05:03:18;7.63;;;6.70;;
17424;SDS011;8830;50.978;5.058;2023-05-07T05:05:45;7.43;;;6.73;;
17424;SDS011;8830;50.978;5.058;2023-05-07T05:08:13;7.20;;;6.67;;
17424;SDS011;8830;50.978;5.058;2023-05-07T05:10:40;7.80;;;7.00;;
17424;SDS011;8830;50.978;5.058;2023-05-07T05:13:08;7.70;;;7.10;;
17424;SDS011;8830;50.978;5.058;2023-05-07T05:15:37;10.10;;;7.17;;
17424;SDS011;8830;50.978;5.058;2023-05-07T05:18:05;7.23;;;6.63;;
17424;SDS011;8830;50.978;5.058;2023-05-07T05:20:32;7.27;;;6.67;;
17424;SDS011;8830;50.978;5.058;2023-05-07T05:22:59;9.13;;;6.70;;
17424;SDS011;8830;50.978;5.058;2023-05-07T05:25:27;7.83;;;6.97;;
17424;SDS011;8830;50.978;5.058;2023-05-07T05:27:54;7.47;;;6.87;;
17424;SDS011;8830;50.978;5.058;2023-05-07T05:30:22;7.03;;;6.50;;
17424;SDS011;8830;50.978;5.058;2023-05-07T05:32:49;6.67;;;6.17;;
17424;SDS011;8830;50.978;5.058;2023-05-07T05:35:16;7.93;;;7.23;;
17424;SDS011;8830;50.978;5.058;2023-05-07T05:37:44;7.43;;;6.83;;
17424;SDS011;8830;50.978;5.058;2023-05-07T05:40:12;7.27;;;6.77;;
17424;SDS011;8830;50.978;5.058;2023-05-07T05:42:40;7.37;;;6.77;;
17424;SDS011;8830;50.978;5.058;2023-05-07T05:45:08;7.40;;;6.83;;
17424;SDS011;8830;50.978;5.058;2023-05-07T05:47:36;6.97;;;6.27;;
17424;SDS011;8830;50.978;5.058;2023-05-07T05:50:04;7.33;;;6.57;;
17424;SDS011;8830;50.978;5.058;2023-05-07T05:52:33;6.67;;;6.17;;
17424;SDS011;8830;50.978;5.058;2023-05-07T05:55:00;7.23;;;6.53;;
17424;SDS011;8830;50.978;5.058;2023-05-07T05:57:28;7.83;;;6.80;;
17424;SDS011;8830;50.978;5.058;2023-05-07T05:59:56;7.30;;;6.70;;
17424;SDS011;8830;50.978;5.058;2023-05-07T06:02:26;7.37;;;6.77;;
17424;SDS011;8830;50.978;5.058;2023-05-07T06:04:53;7.23;;;6.67;;
17424;SDS011;8830;50.978;5.058;2023-05-07T06:07:20;6.93;;;6.40;;
17424;SDS011;8830;50.978;5.058;2023-05-07T06:09:48;7.00;;;6.50;;
17424;SDS011;8830;50.978;5.058;2023-05-07T06:12:15;7.70;;;7.03;;
17424;SDS011;8830;50.978;5.058;2023-05-07T06:14:42;7.50;;;6.90;;
17424;SDS011;8830;50.978;5.058;2023-05-07T06:17:11;7.73;;;7.00;;
17424;SDS011;8830;50.978;5.058;2023-05-07T06:19:38;8.57;;;7.30;;
17424;SDS011;8830;50.978;5.058;2023-05-07T06:22:05;7.40;;;6.60;;
17424;SDS011;8830;50.978;5.058;2023-05-07T06:24:33;7.97;;;7.20;;
17424;SDS011;8830;50.978;5.058;2023-05-07T06:27:00;7.57;;;6.90;;
17424;SDS011;8830;50.978;5.058;2023-05-07T06:29:27;7.20;;;6.60;;
17424;SDS011;8830;50.978;5.058;2023-05-07T06:31:56;7.83;;;7.20;;
17424;SDS011;8830;50.978;5.058;2023-05-07T06:34:25;7.80;;;7.00;;
17424;SDS011;8830;50.978;5.058;2023-05-07T06:36:52;7.67;;;6.87;;
17424;SDS011;8830;50.978;5.058;2023-05-07T06:39:19;7.47;;;6.87;;
17424;SDS011;8830;50.978;5.058;2023-05-07T06:41:46;7.93;;;6.33;;
17424;SDS011;8830;50.978;5.058;2023-05-07T06:44:13;6.73;;;6.23;;
17424;SDS011;8830;50.978;5.058;2023-05-07T06:46:41;7.47;;;6.87;;
17424;SDS011;8830;50.978;5.058;2023-05-07T06:49:08;6.37;;;5.97;;
17424;SDS011;8830;50.978;5.058;2023-05-07T06:51:37;7.37;;;6.77;;
17424;SDS011;8830;50.978;5.058;2023-05-07T06:54:04;7.70;;;6.97;;
17424;SDS011;8830;50.978;5.058;2023-05-07T06:56:31;7.30;;;6.60;;
17424;SDS011;8830;50.978;5.058;2023-05-07T06:58:59;6.63;;;6.13;;
17424;SDS011;8830;50.978;5.058;2023-05-07T07:01:27;6.90;;;6.40;;
17424;SDS011;8830;50.978;5.058;2023-05-07T07:03:54;7.13;;;6.53;;
17424;SDS011;8830;50.978;5.058;2023-05-07T07:06:21;6.45;;;5.85;;
17424;SDS011;8830;50.978;5.058;2023-05-07T07:08:50;6.65;;;5.82;;
17424;SDS011;8830;50.978;5.058;2023-05-07T07:11:17;6.18;;;5.68;;
17424;SDS011;8830;50.978;5.058;2023-05-07T07:13:44;5.47;;;5.07;;
17424;SDS011;8830;50.978;5.058;2023-05-07T07:16:12;7.10;;;6.32;;
17424;SDS011;8830;50.978;5.058;2023-05-07T07:18:39;9.25;;;5.93;;
17424;SDS011;8830;50.978;5.058;2023-05-07T07:21:06;6.95;;;6.20;;
17424;SDS011;8830;50.978;5.058;2023-05-07T07:23:33;7.03;;;6.38;;
17424;SDS011;8830;50.978;5.058;2023-05-07T07:26:02;6.20;;;5.60;;
17424;SDS011;8830;50.978;5.058;2023-05-07T07:28:29;6.10;;;5.60;;
17424;SDS011;8830;50.978;5.058;2023-05-07T07:30:56;7.10;;;6.28;;
17424;SDS011;8830;50.978;5.058;2023-05-07T07:33:23;6.60;;;5.95;;
17424;SDS011;8830;50.978;5.058;2023-05-07T07:35:50;6.22;;;5.65;;
17424;SDS011;8830;50.978;5.058;2023-05-07T07:38:17;6.68;;;6.10;;
17424;SDS011;8830;50.978;5.058;2023-05-07T07:40:47;7.13;;;5.50;;
17424;SDS011;8830;50.978;5.058;2023-05-07T07:43:16;6.60;;;6.00;;
17424;SDS011;8830;50.978;5.058;2023-05-07T07:45:44;11.93;;;6.10;;
17424;SDS011;8830;50.978;5.058;2023-05-07T07:48:12;6.80;;;6.10;;
17424;SDS011;8830;50.978;5.058;2023-05-07T07:50:39;8.32;;;5.53;;
17424;SDS011;8830;50.978;5.058;2023-05-07T07:53:06;5.90;;;5.50;;
17424;SDS011;8830;50.978;5.058;2023-05-07T07:55:37;6.20;;;5.70;;
17424;SDS011;8830;50.978;5.058;2023-05-07T07:58:04;11.80;;;7.50;;
17424;SDS011;8830;50.978;5.058;2023-05-07T08:00:33;8.00;;;7.30;;
17424;SDS011;8830;50.978;5.058;2023-05-07T08:03:02;8.18;;;6.35;;
17424;SDS011;8830;50.978;5.058;2023-05-07T08:05:31;6.13;;;5.13;;
17424;SDS011;8830;50.978;5.058;2023-05-07T08:07:59;5.30;;;4.80;;
17424;SDS011;8830;50.978;5.058;2023-05-07T08:10:26;9.75;;;4.63;;
17424;SDS011;8830;50.978;5.058;2023-05-07T08:12:53;5.10;;;4.57;;
17424;SDS011;8830;50.978;5.058;2023-05-07T08:15:20;6.22;;;4.80;;
17424;SDS011;8830;50.978;5.058;2023-05-07T08:17:49;6.35;;;4.70;;
17424;SDS011;8830;50.978;5.058;2023-05-07T08:20:16;5.78;;;5.05;;
17424;SDS011;8830;50.978;5.058;2023-05-07T08:22:44;5.55;;;4.47;;
17424;SDS011;8830;50.978;5.058;2023-05-07T08:25:11;5.78;;;4.50;;
17424;SDS011;8830;50.978;5.058;2023-05-07T08:27:38;5.03;;;4.30;;
17424;SDS011;8830;50.978;5.058;2023-05-07T08:30:06;11.32;;;5.32;;
17424;SDS011;8830;50.978;5.058;2023-05-07T08:32:34;5.57;;;5.07;;
17424;SDS011;8830;50.978;5.058;2023-05-07T08:35:03;5.55;;;5.03;;
17424;SDS011;8830;50.978;5.058;2023-05-07T08:37:31;5.90;;;5.30;;
17424;SDS011;8830;50.978;5.058;2023-05-07T08:39:59;5.70;;;5.20;;
17424;SDS011;8830;50.978;5.058;2023-05-07T08:42:27;5.85;;;5.22;;
17424;SDS011;8830;50.978;5.058;2023-05-07T08:44:57;6.60;;;5.70;;
17424;SDS011;8830;50.978;5.058;2023-05-07T08:47:29;8.88;;;5.70;;
17424;SDS011;8830;50.978;5.058;2023-05-07T08:50:02;6.55;;;5.45;;
17424;SDS011;8830;50.978;5.058;2023-05-07T08:52:31;5.78;;;5.28;;
17424;SDS011;8830;50.978;5.058;2023-05-07T08:54:58;5.95;;;4.97;;
17424;SDS011;8830;50.978;5.058;2023-05-07T08:57:26;8.68;;;5.80;;
17424;SDS011;8830;50.978;5.058;2023-05-07T08:59:53;7.22;;;5.35;;
17424;SDS011;8830;50.978;5.058;2023-05-07T09:02:21;7.20;;;5.25;;
17424;SDS011;8830;50.978;5.058;2023-05-07T09:04:48;10.20;;;5.63;;
17424;SDS011;8830;50.978;5.058;2023-05-07T09:07:17;7.53;;;4.68;;
17424;SDS011;8830;50.978;5.058;2023-05-07T09:09:46;8.90;;;5.07;;
17424;SDS011;8830;50.978;5.058;2023-05-07T09:12:13;5.95;;;4.72;;
17424;SDS011;8830;50.978;5.058;2023-05-07T09:14:40;5.78;;;4.63;;
17424;SDS011;8830;50.978;5.058;2023-05-07T09:17:07;6.90;;;5.10;;
17424;SDS011;8830;50.978;5.058;2023-05-07T09:19:35;5.05;;;4.57;;
17424;SDS011;8830;50.978;5.058;2023-05-07T09:22:03;8.48;;;5.13;;
17424;SDS011;8830;50.978;5.058;2023-05-07T09:24:33;5.85;;;4.60;;
17424;SDS011;8830;50.978;5.058;2023-05-07T09:27:03;5.40;;;4.90;;
17424;SDS011;8830;50.978;5.058;2023-05-07T09:29:30;7.80;;;5.53;;
17424;SDS011;8830;50.978;5.058;2023-05-07T09:32:03;8.85;;;5.20;;
17424;SDS011;8830;50.978;5.058;2023-05-07T09:34:32;5.40;;;4.90;;
17424;SDS011;8830;50.978;5.058;2023-05-07T09:37:02;6.97;;;5.28;;
17424;SDS011;8830;50.978;5.058;2023-05-07T09:39:39;5.93;;;5.03;;
17424;SDS011;8830;50.978;5.058;2023-05-07T09:42:07;9.25;;;5.40;;
17424;SDS011;8830;50.978;5.058;2023-05-07T09:44:35;5.68;;;5.03;;
17424;SDS011;8830;50.978;5.058;2023-05-07T09:47:04;8.32;;;5.75;;
17424;SDS011;8830;50.978;5.058;2023-05-07T09:49:33;9.63;;;5.20;;
17424;SDS011;8830;50.978;5.058;2023-05-07T09:52:02;8.75;;;4.93;;
17424;SDS011;8830;50.978;5.058;2023-05-07T09:54:32;7.22;;;4.70;;
17424;SDS011;8830;50.978;5.058;2023-05-07T09:57:02;5.88;;;4.00;;
17424;SDS011;8830;50.978;5.058;2023-05-07T09:59:31;8.02;;;4.25;;
17424;SDS011;8830;50.978;5.058;2023-05-07T10:01:59;7.85;;;4.53;;
17424;SDS011;8830;50.978;5.058;2023-05-07T10:04:27;5.63;;;3.45;;
17424;SDS011;8830;50.978;5.058;2023-05-07T10:06:55;8.35;;;3.63;;
17424;SDS011;8830;50.978;5.058;2023-05-07T10:09:22;8.20;;;3.78;;
17424;SDS011;8830;50.978;5.058;2023-05-07T10:11:50;4.75;;;3.67;;
17424;SDS011;8830;50.978;5.058;2023-05-07T10:14:20;6.47;;;4.15;;
17424;SDS011;8830;50.978;5.058;2023-05-07T10:16:48;9.80;;;4.32;;
17424;SDS011;8830;50.978;5.058;2023-05-07T10:19:17;10.25;;;4.90;;
17424;SDS011;8830;50.978;5.058;2023-05-07T10:21:48;10.25;;;5.38;;
17424;SDS011;8830;50.978;5.058;2023-05-07T10:24:25;4.28;;;3.88;;
17424;SDS011;8830;50.978;5.058;2023-05-07T10:26:53;7.45;;;4.03;;
17424;SDS011;8830;50.978;5.058;2023-05-07T10:29:35;6.05;;;3.88;;
17424;SDS011;8830;50.978;5.058;2023-05-07T10:32:12;6.05;;;3.28;;
17424;SDS011;8830;50.978;5.058;2023-05-07T10:34:50;4.88;;;3.22;;
17424;SDS011;8830;50.978;5.058;2023-05-07T10:37:22;4.65;;;3.03;;
17424;SDS011;8830;50.978;5.058;2023-05-07T10:39:50;5.00;;;3.50;;
17424;SDS011;8830;50.978;5.058;2023-05-07T10:42:18;6.57;;;4.07;;
17424;SDS011;8830;50.978;5.058;2023-05-07T10:44:47;5.43;;;2.75;;
17424;SDS011;8830;50.978;5.058;2023-05-07T10:47:15;5.72;;;3.15;;
17424;SDS011;8830;50.978;5.058;2023-05-07T10:58:53;3.47;;;3.17;;
17424;SDS011;8830;50.978;5.058;2023-05-07T11:04:26;4.43;;;3.42;;
17424;SDS011;8830;50.978;5.058;2023-05-07T11:09:55;4.50;;;3.78;;
17424;SDS011;8830;50.978;5.058;2023-05-07T11:15:31;4.93;;;3.47;;
17424;SDS011;8830;50.978;5.058;2023-05-07T11:18:10;5.25;;;3.80;;
17424;SDS011;8830;50.978;5.058;2023-05-07T11:20:46;7.73;;;3.50;;
17424;SDS011;8830;50.978;5.058;2023-05-07T11:26:23;5.38;;;3.15;;
17424;SDS011;8830;50.978;5.058;2023-05-07T11:28:51;3.05;;;2.75;;
17424;SDS011;8830;50.978;5.058;2023-05-07T11:31:24;6.47;;;4.03;;
17424;SDS011;8830;50.978;5.058;2023-05-07T11:33:54;5.13;;;3.30;;
17424;SDS011;8830;50.978;5.058;2023-05-07T11:36:23;5.38;;;3.65;;
17424;SDS011;8830;50.978;5.058;2023-05-07T11:38:51;6.97;;;3.20;;
17424;SDS011;8830;50.978;5.058;2023-05-07T11:41:18;7.82;;;3.95;;
17424;SDS011;8830;50.978;5.058;2023-05-07T11:43:55;5.80;;;4.40;;
17424;SDS011;8830;50.978;5.058;2023-05-07T11:46:23;6.22;;;3.97;;
17424;SDS011;8830;50.978;5.058;2023-05-07T11:48:50;4.55;;;3.60;;
17424;SDS011;8830;50.978;5.058;2023-05-07T11:51:20;8.93;;;4.33;;
17424;SDS011;8830;50.978;5.058;2023-05-07T11:53:51;7.40;;;4.07;;
17424;SDS011;8830;50.978;5.058;2023-05-07T11:56:18;5.28;;;3.78;;
17424;SDS011;8830;50.978;5.058;2023-05-07T11:58:46;6.25;;;4.38;;
17424;SDS011;8830;50.978;5.058;2023-05-07T12:01:15;5.88;;;4.30;;
17424;SDS011;8830;50.978;5.058;2023-05-07T12:03:43;5.55;;;4.03;;
17424;SDS011;8830;50.978;5.058;2023-05-07T12:06:12;6.05;;;4.45;;
17424;SDS011;8830;50.978;5.058;2023-05-07T12:08:41;7.85;;;4.28;;
17424;SDS011;8830;50.978;5.058;2023-05-07T12:11:15;5.07;;;3.95;;
17424;SDS011;8830;50.978;5.058;2023-05-07T12:13:50;6.07;;;4.70;;
17424;SDS011;8830;50.978;5.058;2023-05-07T12:16:17;5.18;;;4.15;;
17424;SDS011;8830;50.978;5.058;2023-05-07T12:18:45;6.68;;;4.15;;
17424;SDS011;8830;50.978;5.058;2023-05-07T12:21:13;6.05;;;4.15;;
17424;SDS011;8830;50.978;5.058;2023-05-07T12:23:42;5.05;;;4.07;;
17424;SDS011;8830;50.978;5.058;2023-05-07T12:26:11;5.45;;;3.53;;
17424;SDS011;8830;50.978;5.058;2023-05-07T12:28:38;5.35;;;4.07;;
17424;SDS011;8830;50.978;5.058;2023-05-07T12:31:05;4.30;;;3.40;;
17424;SDS011;8830;50.978;5.058;2023-05-07T12:33:33;3.47;;;2.60;;
17424;SDS011;8830;50.978;5.058;2023-05-07T12:36:05;4.90;;;2.65;;
17424;SDS011;8830;50.978;5.058;2023-05-07T12:38:37;2.65;;;2.45;;
17424;SDS011;8830;50.978;5.058;2023-05-07T12:41:06;6.93;;;2.70;;
17424;SDS011;8830;50.978;5.058;2023-05-07T12:43:35;3.50;;;2.25;;
17424;SDS011;8830;50.978;5.058;2023-05-07T12:46:03;5.15;;;2.67;;
17424;SDS011;8830;50.978;5.058;2023-05-07T12:48:31;7.78;;;2.65;;
17424;SDS011;8830;50.978;5.058;2023-05-07T12:50:59;4.60;;;3.50;;
17424;SDS011;8830;50.978;5.058;2023-05-07T12:53:28;5.38;;;3.30;;
17424;SDS011;8830;50.978;5.058;2023-05-07T12:55:56;8.23;;;3.70;;
17424;SDS011;8830;50.978;5.058;2023-05-07T12:58:25;6.82;;;3.40;;
17424;SDS011;8830;50.978;5.058;2023-05-07T13:00:55;4.47;;;3.35;;
17424;SDS011;8830;50.978;5.058;2023-05-07T13:03:26;4.72;;;3.20;;
17424;SDS011;8830;50.978;5.058;2023-05-07T13:05:55;4.65;;;3.30;;
17424;SDS011;8830;50.978;5.058;2023-05-07T13:08:26;6.82;;;3.00;;
17424;SDS011;8830;50.978;5.058;2023-05-07T13:10:56;4.40;;;2.80;;
17424;SDS011;8830;50.978;5.058;2023-05-07T13:13:24;5.15;;;2.72;;
17424;SDS011;8830;50.978;5.058;2023-05-07T13:15:51;5.65;;;2.65;;
17424;SDS011;8830;50.978;5.058;2023-05-07T13:18:19;6.55;;;2.40;;
17424;SDS011;8830;50.978;5.058;2023-05-07T13:20:46;6.22;;;2.78;;
17424;SDS011;8830;50.978;5.058;2023-05-07T13:23:13;5.13;;;2.50;;
17424;SDS011;8830;50.978;5.058;2023-05-07T13:25:40;4.28;;;2.92;;
17424;SDS011;8830;50.978;5.058;2023-05-07T13:28:08;6.10;;;2.83;;
17424;SDS011;8830;50.978;5.058;2023-05-07T13:30:36;4.80;;;3.03;;
17424;SDS011;8830;50.978;5.058;2023-05-07T13:33:03;4.32;;;3.10;;
17424;SDS011;8830;50.978;5.058;2023-05-07T13:35:32;5.20;;;3.35;;
17424;SDS011;8830;50.978;5.058;2023-05-07T13:37:59;4.75;;;3.03;;
17424;SDS011;8830;50.978;5.058;2023-05-07T13:40:26;5.28;;;2.60;;
17424;SDS011;8830;50.978;5.058;2023-05-07T13:42:53;3.70;;;2.33;;
17424;SDS011;8830;50.978;5.058;2023-05-07T13:45:23;6.95;;;3.72;;
17424;SDS011;8830;50.978;5.058;2023-05-07T13:47:52;7.47;;;2.63;;
17424;SDS011;8830;50.978;5.058;2023-05-07T13:50:19;4.15;;;2.28;;
17424;SDS011;8830;50.978;5.058;2023-05-07T13:52:48;4.70;;;2.90;;
17424;SDS011;8830;50.978;5.058;2023-05-07T13:55:17;3.05;;;2.03;;
17424;SDS011;8830;50.978;5.058;2023-05-07T13:57:45;3.85;;;2.40;;
17424;SDS011;8830;50.978;5.058;2023-05-07T14:00:12;7.43;;;2.25;;
17424;SDS011;8830;50.978;5.058;2023-05-07T14:02:41;4.95;;;2.00;;
17424;SDS011;8830;50.978;5.058;2023-05-07T14:05:09;3.38;;;1.98;;
17424;SDS011;8830;50.978;5.058;2023-05-07T14:07:36;4.10;;;2.50;;
17424;SDS011;8830;50.978;5.058;2023-05-07T14:10:05;5.72;;;3.60;;
17424;SDS011;8830;50.978;5.058;2023-05-07T14:12:33;3.28;;;2.63;;
17424;SDS011;8830;50.978;5.058;2023-05-07T14:15:00;3.63;;;2.00;;
17424;SDS011;8830;50.978;5.058;2023-05-07T14:17:27;3.67;;;2.47;;
17424;SDS011;8830;50.978;5.058;2023-05-07T14:19:54;2.78;;;2.17;;
17424;SDS011;8830;50.978;5.058;2023-05-07T14:22:22;2.80;;;2.20;;
17424;SDS011;8830;50.978;5.058;2023-05-07T14:24:49;3.08;;;2.50;;
17424;SDS011;8830;50.978;5.058;2023-05-07T14:27:20;3.30;;;2.08;;
17424;SDS011;8830;50.978;5.058;2023-05-07T14:29:47;4.88;;;2.50;;
17424;SDS011;8830;50.978;5.058;2023-05-07T14:32:16;5.60;;;2.40;;
17424;SDS011;8830;50.978;5.058;2023-05-07T14:34:44;3.45;;;1.95;;
17424;SDS011;8830;50.978;5.058;2023-05-07T14:37:11;5.78;;;2.25;;
17424;SDS011;8830;50.978;5.058;2023-05-07T14:39:39;3.35;;;1.95;;
17424;SDS011;8830;50.978;5.058;2023-05-07T14:42:06;4.95;;;2.33;;
17424;SDS011;8830;50.978;5.058;2023-05-07T14:44:35;3.20;;;2.33;;
17424;SDS011;8830;50.978;5.058;2023-05-07T14:47:03;4.90;;;2.70;;
17424;SDS011;8830;50.978;5.058;2023-05-07T14:49:30;4.35;;;2.55;;
17424;SDS011;8830;50.978;5.058;2023-05-07T14:51:57;2.85;;;2.05;;
17424;SDS011;8830;50.978;5.058;2023-05-07T14:54:25;3.30;;;2.17;;
17424;SDS011;8830;50.978;5.058;2023-05-07T14:56:52;2.63;;;1.90;;
17424;SDS011;8830;50.978;5.058;2023-05-07T14:59:21;2.38;;;1.85;;
17424;SDS011;8830;50.978;5.058;2023-05-07T15:01:51;1.67;;;1.55;;
17424;SDS011;8830;50.978;5.058;2023-05-07T15:04:19;3.65;;;2.13;;
17424;SDS011;8830;50.978;5.058;2023-05-07T15:06:46;5.85;;;2.67;;
17424;SDS011;8830;50.978;5.058;2023-05-07T15:09:13;3.50;;;2.13;;
17424;SDS011;8830;50.978;5.058;2023-05-07T15:11:40;2.97;;;2.00;;
17424;SDS011;8830;50.978;5.058;2023-05-07T15:14:07;2.30;;;1.95;;
17424;SDS011;8830;50.978;5.058;2023-05-07T15:16:35;5.53;;;2.90;;
17424;SDS011;8830;50.978;5.058;2023-05-07T15:19:03;2.20;;;1.83;;
17424;SDS011;8830;50.978;5.058;2023-05-07T15:21:30;3.88;;;2.10;;
17424;SDS011;8830;50.978;5.058;2023-05-07T15:23:59;2.90;;;1.70;;
17424;SDS011;8830;50.978;5.058;2023-05-07T15:26:27;3.05;;;1.58;;